sensor_id;sensor_type;location;lat;lon;timestamp;pressure;altitude;pressure_sealevel;temperature;humidity
43298;BME280;28892;55.640;37.532;2023-10-19T00:02:07;97751.94;;;6.45;69.55
43298;BME280;28892;55.640;37.532;2023-10-19T00:04:33;97752.59;;;6.54;69.42
43298;BME280;28892;55.640;37.532;2023-10-19T00:07:02;97756.66;;;6.56;69.35
43298;BME280;28892;55.640;37.532;2023-10-19T00:09:32;97744.69;;;6.54;68.91
43298;BME280;28892;55.640;37.532;2023-10-19T00:12:05;97755.88;;;6.56;68.92
43298;BME280;28892;55.640;37.532;2023-10-19T00:14:34;97754.44;;;6.53;69.31
43298;BME280;28892;55.640;37.532;2023-10-19T00:17:03;97764.91;;;6.47;69.10
43298;BME280;28892;55.640;37.532;2023-10-19T00:19:34;97759.69;;;6.25;70.25
43298;BME280;28892;55.640;37.532;2023-10-19T00:22:05;97757.16;;;5.95;70.86
43298;BME280;28892;55.640;37.532;2023-10-19T00:24:35;97758.94;;;6.09;70.73
43298;BME280;28892;55.640;37.532;2023-10-19T00:27:01;97753.06;;;5.92;71.15
43298;BME280;28892;55.640;37.532;2023-10-19T00:29:43;97758.16;;;5.94;71.34
43298;BME280;28892;55.640;37.532;2023-10-19T00:32:15;97757.09;;;5.88;71.70
43298;BME280;28892;55.640;37.532;2023-10-19T00:34:43;97748.19;;;5.89;71.82
43298;BME280;28892;55.640;37.532;2023-10-19T00:37:16;97748.19;;;5.89;71.47
43298;BME280;28892;55.640;37.532;2023-10-19T00:39:45;97745.50;;;5.82;71.78
43298;BME280;28892;55.640;37.532;2023-10-19T00:42:20;97751.72;;;5.75;72.08
43298;BME280;28892;55.640;37.532;2023-10-19T00:44:57;97745.63;;;5.74;72.19
43298;BME280;28892;55.640;37.532;2023-10-19T00:47:32;97756.16;;;5.74;72.27
43298;BME280;28892;55.640;37.532;2023-10-19T00:50:07;97752.75;;;5.58;72.74
43298;BME280;28892;55.640;37.532;2023-10-19T00:52:38;97751.28;;;5.71;72.24
43298;BME280;28892;55.640;37.532;2023-10-19T00:55:09;97743.63;;;5.76;72.05
43298;BME280;28892;55.640;37.532;2023-10-19T00:57:40;97745.66;;;5.59;72.28
43298;BME280;28892;55.640;37.532;2023-10-19T01:00:12;97745.50;;;5.61;72.48
43298;BME280;28892;55.640;37.532;2023-10-19T01:02:48;97750.25;;;5.72;72.36
43298;BME280;28892;55.640;37.532;2023-10-19T01:05:17;97749.88;;;5.75;71.98
43298;BME280;28892;55.640;37.532;2023-10-19T01:07:47;97751.34;;;5.78;72.26
43298;BME280;28892;55.640;37.532;2023-10-19T01:10:23;97750.81;;;5.67;72.21
43298;BME280;28892;55.640;37.532;2023-10-19T01:12:51;97757.72;;;5.68;72.43
43298;BME280;28892;55.640;37.532;2023-10-19T01:15:18;97750.31;;;5.79;72.38
43298;BME280;28892;55.640;37.532;2023-10-19T01:17:56;97749.19;;;5.66;72.34
43298;BME280;28892;55.640;37.532;2023-10-19T01:20:27;97748.94;;;5.83;71.82
43298;BME280;28892;55.640;37.532;2023-10-19T01:23:01;97747.53;;;5.80;71.86
43298;BME280;28892;55.640;37.532;2023-10-19T01:28:16;97750.16;;;5.80;72.16
43298;BME280;28892;55.640;37.532;2023-10-19T01:30:45;97740.97;;;5.76;71.93
43298;BME280;28892;55.640;37.532;2023-10-19T01:33:12;97747.84;;;5.55;72.61
43298;BME280;28892;55.640;37.532;2023-10-19T01:35:44;97745.97;;;5.49;73.08
43298;BME280;28892;55.640;37.532;2023-10-19T01:38:30;97738.84;;;5.65;72.50
43298;BME280;28892;55.640;37.532;2023-10-19T01:41:00;97750.75;;;5.61;72.22
43298;BME280;28892;55.640;37.532;2023-10-19T01:43:27;97742.53;;;5.70;72.17
43298;BME280;28892;55.640;37.532;2023-10-19T01:45:57;97744.88;;;5.58;72.63
43298;BME280;28892;55.640;37.532;2023-10-19T01:48:24;97741.34;;;5.51;73.09
43298;BME280;28892;55.640;37.532;2023-10-19T01:51:02;97739.41;;;5.60;73.10
43298;BME280;28892;55.640;37.532;2023-10-19T01:53:34;97737.03;;;5.65;72.73
43298;BME280;28892;55.640;37.532;2023-10-19T01:56:09;97744.66;;;5.60;73.25
43298;BME280;28892;55.640;37.532;2023-10-19T01:58:36;97738.66;;;5.66;72.88
43298;BME280;28892;55.640;37.532;2023-10-19T02:01:04;97743.03;;;5.59;72.86
43298;BME280;28892;55.640;37.532;2023-10-19T02:03:50;97742.25;;;5.58;73.31
43298;BME280;28892;55.640;37.532;2023-10-19T02:06:21;97739.50;;;5.52;72.77
43298;BME280;28892;55.640;37.532;2023-10-19T02:08:59;97735.34;;;5.79;72.89
43298;BME280;28892;55.640;37.532;2023-10-19T02:11:27;97738.91;;;5.71;71.75
43298;BME280;28892;55.640;37.532;2023-10-19T02:13:56;97734.81;;;5.47;72.94
43298;BME280;28892;55.640;37.532;2023-10-19T02:16:26;97735.13;;;5.37;73.31
43298;BME280;28892;55.640;37.532;2023-10-19T02:18:56;97740.94;;;5.32;73.47
43298;BME280;28892;55.640;37.532;2023-10-19T02:21:42;97733.97;;;5.25;74.03
43298;BME280;28892;55.640;37.532;2023-10-19T02:24:09;97745.50;;;5.24;74.14
43298;BME280;28892;55.640;37.532;2023-10-19T02:26:37;97734.66;;;5.34;73.89
43298;BME280;28892;55.640;37.532;2023-10-19T02:29:04;97737.91;;;5.36;73.61
43298;BME280;28892;55.640;37.532;2023-10-19T02:31:35;97738.28;;;5.32;73.91
43298;BME280;28892;55.640;37.532;2023-10-19T02:34:04;97729.72;;;5.24;73.95
43298;BME280;28892;55.640;37.532;2023-10-19T02:36:42;97743.66;;;5.24;74.23
43298;BME280;28892;55.640;37.532;2023-10-19T02:39:11;97733.97;;;5.25;74.23
43298;BME280;28892;55.640;37.532;2023-10-19T02:41:42;97728.25;;;5.21;74.10
43298;BME280;28892;55.640;37.532;2023-10-19T02:44:15;97734.63;;;4.97;74.81
43298;BME280;28892;55.640;37.532;2023-10-19T02:46:45;97741.25;;;5.08;74.53
43298;BME280;28892;55.640;37.532;2023-10-19T02:49:12;97730.78;;;5.29;74.45
43298;BME280;28892;55.640;37.532;2023-10-19T02:52:02;97735.38;;;5.42;73.87
43298;BME280;28892;55.640;37.532;2023-10-19T02:54:30;97731.00;;;5.50;73.56
43298;BME280;28892;55.640;37.532;2023-10-19T02:56:59;97735.53;;;5.56;73.50
43298;BME280;28892;55.640;37.532;2023-10-19T02:59:27;97733.13;;;5.39;73.36
43298;BME280;28892;55.640;37.532;2023-10-19T03:01:56;97729.94;;;5.44;73.84
43298;BME280;28892;55.640;37.532;2023-10-19T03:04:39;97730.66;;;5.53;73.34
43298;BME280;28892;55.640;37.532;2023-10-19T03:07:43;97726.53;;;5.65;73.49
43298;BME280;28892;55.640;37.532;2023-10-19T03:10:31;97722.75;;;5.53;72.77
43298;BME280;28892;55.640;37.532;2023-10-19T03:13:12;97719.41;;;5.44;72.92
43298;BME280;28892;55.640;37.532;2023-10-19T03:15:40;97730.03;;;5.36;73.48
43298;BME280;28892;55.640;37.532;2023-10-19T03:18:08;97723.59;;;5.38;73.68
43298;BME280;28892;55.640;37.532;2023-10-19T03:20:40;97732.69;;;5.57;73.10
43298;BME280;28892;55.640;37.532;2023-10-19T03:23:09;97729.31;;;5.42;73.27
43298;BME280;28892;55.640;37.532;2023-10-19T03:25:36;97738.44;;;5.46;73.31
43298;BME280;28892;55.640;37.532;2023-10-19T03:28:20;97738.03;;;5.42;73.15
43298;BME280;28892;55.640;37.532;2023-10-19T03:30:51;97734.56;;;5.42;73.08
43298;BME280;28892;55.640;37.532;2023-10-19T03:33:17;97739.56;;;5.37;73.22
43298;BME280;28892;55.640;37.532;2023-10-19T03:35:43;97724.88;;;5.42;73.23
43298;BME280;28892;55.640;37.532;2023-10-19T03:38:09;97731.00;;;5.50;73.26
43298;BME280;28892;55.640;37.532;2023-10-19T03:40:43;97729.63;;;5.32;73.13
43298;BME280;28892;55.640;37.532;2023-10-19T03:43:19;97723.34;;;5.33;73.60
43298;BME280;28892;55.640;37.532;2023-10-19T03:45:48;97734.13;;;5.38;73.39
43298;BME280;28892;55.640;37.532;2023-10-19T03:48:19;97730.13;;;5.42;73.60
43298;BME280;28892;55.640;37.532;2023-10-19T03:51:00;97736.50;;;5.33;73.25
43298;BME280;28892;55.640;37.532;2023-10-19T03:53:28;97736.69;;;5.16;74.04
43298;BME280;28892;55.640;37.532;2023-10-19T03:55:54;97731.97;;;5.12;74.52
43298;BME280;28892;55.640;37.532;2023-10-19T03:58:20;97726.13;;;5.47;73.78
43298;BME280;28892;55.640;37.532;2023-10-19T04:00:49;97735.56;;;5.41;73.76
43298;BME280;28892;55.640;37.532;2023-10-19T04:03:16;97736.22;;;5.65;72.85
43298;BME280;28892;55.640;37.532;2023-10-19T04:05:50;97739.31;;;5.31;73.21
43298;BME280;28892;55.640;37.532;2023-10-19T04:08:16;97739.44;;;5.45;73.67
43298;BME280;28892;55.640;37.532;2023-10-19T04:10:52;97734.16;;;5.60;72.95
43298;BME280;28892;55.640;37.532;2023-10-19T04:13:34;97749.47;;;5.56;73.17
43298;BME280;28892;55.640;37.532;2023-10-19T04:16:04;97744.22;;;5.56;73.24
43298;BME280;28892;55.640;37.532;2023-10-19T04:18:31;97747.19;;;5.68;72.93
43298;BME280;28892;55.640;37.532;2023-10-19T04:21:00;97743.59;;;5.54;73.22
43298;BME280;28892;55.640;37.532;2023-10-19T04:23:27;97741.03;;;5.61;73.12
43298;BME280;28892;55.640;37.532;2023-10-19T04:25:55;97746.28;;;5.61;73.36
43298;BME280;28892;55.640;37.532;2023-10-19T04:28:24;97748.22;;;5.52;73.34
43298;BME280;28892;55.640;37.532;2023-10-19T04:30:57;97743.88;;;5.59;73.44
43298;BME280;28892;55.640;37.532;2023-10-19T04:33:30;97745.44;;;5.54;73.59
43298;BME280;28892;55.640;37.532;2023-10-19T04:35:56;97744.88;;;5.58;73.75
43298;BME280;28892;55.640;37.532;2023-10-19T04:38:40;97746.50;;;5.59;73.60
43298;BME280;28892;55.640;37.532;2023-10-19T04:41:07;97747.84;;;5.55;73.81
43298;BME280;28892;55.640;37.532;2023-10-19T04:43:42;97748.84;;;5.54;73.98
43298;BME280;28892;55.640;37.532;2023-10-19T04:46:16;97743.41;;;5.56;73.80
43298;BME280;28892;55.640;37.532;2023-10-19T04:48:44;97745.22;;;5.55;73.69
43298;BME280;28892;55.640;37.532;2023-10-19T04:51:10;97740.50;;;5.51;73.59
43298;BME280;28892;55.640;37.532;2023-10-19T04:53:41;97750.16;;;5.43;74.20
43298;BME280;28892;55.640;37.532;2023-10-19T04:56:08;97752.66;;;5.52;74.21
43298;BME280;28892;55.640;37.532;2023-10-19T04:58:35;97755.19;;;5.60;73.74
43298;BME280;28892;55.640;37.532;2023-10-19T05:01:01;97758.59;;;5.76;74.12
43298;BME280;28892;55.640;37.532;2023-10-19T05:03:29;97752.56;;;5.82;73.67
43298;BME280;28892;55.640;37.532;2023-10-19T05:05:58;97748.31;;;5.81;73.20
43298;BME280;28892;55.640;37.532;2023-10-19T05:08:25;97753.50;;;5.74;73.05
43298;BME280;28892;55.640;37.532;2023-10-19T05:10:52;97748.91;;;5.61;73.50
43298;BME280;28892;55.640;37.532;2023-10-19T05:13:21;97752.78;;;5.43;73.84
43298;BME280;28892;55.640;37.532;2023-10-19T05:15:50;97754.31;;;5.53;74.01
43298;BME280;28892;55.640;37.532;2023-10-19T05:18:16;97759.59;;;5.53;73.84
43298;BME280;28892;55.640;37.532;2023-10-19T05:20:42;97746.25;;;5.39;74.09
43298;BME280;28892;55.640;37.532;2023-10-19T05:23:09;97753.63;;;5.66;74.33
43298;BME280;28892;55.640;37.532;2023-10-19T05:25:38;97748.63;;;5.71;73.84
43298;BME280;28892;55.640;37.532;2023-10-19T05:28:07;97759.47;;;5.83;73.41
43298;BME280;28892;55.640;37.532;2023-10-19T05:30:50;97757.09;;;5.66;73.83
43298;BME280;28892;55.640;37.532;2023-10-19T05:33:16;97763.09;;;5.82;73.15
43298;BME280;28892;55.640;37.532;2023-10-19T05:35:42;97764.88;;;5.75;73.52
43298;BME280;28892;55.640;37.532;2023-10-19T05:38:11;97757.84;;;5.82;73.01
43298;BME280;28892;55.640;37.532;2023-10-19T05:40:40;97765.06;;;5.95;73.09
43298;BME280;28892;55.640;37.532;2023-10-19T05:43:09;97771.50;;;5.92;73.02
43298;BME280;28892;55.640;37.532;2023-10-19T05:45:34;97764.78;;;5.90;72.74
43298;BME280;28892;55.640;37.532;2023-10-19T05:48:03;97765.00;;;5.88;72.78
43298;BME280;28892;55.640;37.532;2023-10-19T05:50:33;97773.00;;;5.80;72.86
43298;BME280;28892;55.640;37.532;2023-10-19T05:53:02;97770.25;;;5.88;72.88
43298;BME280;28892;55.640;37.532;2023-10-19T05:55:29;97765.34;;;5.85;72.92
43298;BME280;28892;55.640;37.532;2023-10-19T05:57:55;97770.88;;;5.90;72.98
43298;BME280;28892;55.640;37.532;2023-10-19T06:00:31;97761.25;;;5.97;73.02
43298;BME280;28892;55.640;37.532;2023-10-19T06:02:58;97774.28;;;6.06;72.35
43298;BME280;28892;55.640;37.532;2023-10-19T06:05:28;97766.59;;;6.04;72.14
43298;BME280;28892;55.640;37.532;2023-10-19T06:07:55;97776.41;;;6.17;71.86
43298;BME280;28892;55.640;37.532;2023-10-19T06:10:24;97770.66;;;6.07;71.78
43298;BME280;28892;55.640;37.532;2023-10-19T06:13:18;97769.31;;;5.96;71.49
43298;BME280;28892;55.640;37.532;2023-10-19T06:15:52;97767.44;;;6.11;71.58
43298;BME280;28892;55.640;37.532;2023-10-19T06:18:22;97775.03;;;6.21;71.48
43298;BME280;28892;55.640;37.532;2023-10-19T06:20:49;97769.97;;;6.20;70.79
43298;BME280;28892;55.640;37.532;2023-10-19T06:23:29;97762.00;;;6.13;71.39
43298;BME280;28892;55.640;37.532;2023-10-19T06:26:08;97769.84;;;6.28;71.20
43298;BME280;28892;55.640;37.532;2023-10-19T06:28:36;97768.78;;;6.22;70.06
43298;BME280;28892;55.640;37.532;2023-10-19T06:31:07;97765.28;;;6.43;70.56
43298;BME280;28892;55.640;37.532;2023-10-19T06:33:36;97782.03;;;6.36;69.80
43298;BME280;28892;55.640;37.532;2023-10-19T06:36:07;97779.66;;;6.41;69.97
43298;BME280;28892;55.640;37.532;2023-10-19T06:38:44;97774.44;;;6.48;70.12
43298;BME280;28892;55.640;37.532;2023-10-19T06:41:23;97788.47;;;6.55;70.31
43298;BME280;28892;55.640;37.532;2023-10-19T06:43:52;97772.44;;;6.50;70.44
43298;BME280;28892;55.640;37.532;2023-10-19T06:46:18;97769.97;;;6.48;70.55
43298;BME280;28892;55.640;37.532;2023-10-19T06:48:47;97770.22;;;6.53;70.09
43298;BME280;28892;55.640;37.532;2023-10-19T06:51:13;97777.94;;;6.55;70.49
43298;BME280;28892;55.640;37.532;2023-10-19T06:53:43;97763.44;;;6.37;70.89
43298;BME280;28892;55.640;37.532;2023-10-19T06:56:09;97776.03;;;6.42;71.26
43298;BME280;28892;55.640;37.532;2023-10-19T06:58:36;97769.69;;;6.36;70.80
43298;BME280;28892;55.640;37.532;2023-10-19T07:01:07;97773.56;;;6.40;71.38
43298;BME280;28892;55.640;37.532;2023-10-19T07:03:34;97776.25;;;6.47;70.92
43298;BME280;28892;55.640;37.532;2023-10-19T07:06:00;97783.38;;;6.25;71.00
43298;BME280;28892;55.640;37.532;2023-10-19T07:08:28;97778.78;;;6.34;71.20
43298;BME280;28892;55.640;37.532;2023-10-19T07:10:54;97777.78;;;6.35;70.93
43298;BME280;28892;55.640;37.532;2023-10-19T07:13:20;97775.19;;;6.41;70.52
43298;BME280;28892;55.640;37.532;2023-10-19T07:15:48;97783.72;;;6.43;70.34
43298;BME280;28892;55.640;37.532;2023-10-19T07:18:17;97778.16;;;6.32;70.56
43298;BME280;28892;55.640;37.532;2023-10-19T07:20:43;97778.16;;;6.32;70.18
43298;BME280;28892;55.640;37.532;2023-10-19T07:23:14;97782.44;;;6.33;70.68
43298;BME280;28892;55.640;37.532;2023-10-19T07:25:53;97794.09;;;6.23;70.35
43298;BME280;28892;55.640;37.532;2023-10-19T07:28:22;97791.38;;;6.38;70.30
43298;BME280;28892;55.640;37.532;2023-10-19T07:30:57;97787.41;;;6.49;70.00
43298;BME280;28892;55.640;37.532;2023-10-19T07:33:25;97797.94;;;6.49;70.02
43298;BME280;28892;55.640;37.532;2023-10-19T07:35:52;97796.75;;;6.52;70.30
43298;BME280;28892;55.640;37.532;2023-10-19T07:38:23;97797.72;;;6.44;69.98
43298;BME280;28892;55.640;37.532;2023-10-19T07:40:50;97792.31;;;6.52;69.62
43298;BME280;28892;55.640;37.532;2023-10-19T07:43:18;97786.44;;;6.50;69.71
43298;BME280;28892;55.640;37.532;2023-10-19T07:45:46;97796.66;;;6.67;69.88
43298;BME280;28892;55.640;37.532;2023-10-19T07:48:14;97799.97;;;6.76;69.71
43298;BME280;28892;55.640;37.532;2023-10-19T07:50:40;97798.56;;;6.73;69.45
43298;BME280;28892;55.640;37.532;2023-10-19T07:53:08;97794.00;;;6.60;69.15
43298;BME280;28892;55.640;37.532;2023-10-19T07:55:37;97801.72;;;6.62;69.59
43298;BME280;28892;55.640;37.532;2023-10-19T07:58:05;97792.53;;;6.57;69.56
43298;BME280;28892;55.640;37.532;2023-10-19T08:00:32;97798.78;;;6.50;69.50
43298;BME280;28892;55.640;37.532;2023-10-19T08:03:03;97792.53;;;6.57;69.67
43298;BME280;28892;55.640;37.532;2023-10-19T08:05:30;97804.81;;;6.72;69.28
43298;BME280;28892;55.640;37.532;2023-10-19T08:07:57;97808.97;;;6.60;69.60
43298;BME280;28892;55.640;37.532;2023-10-19T08:10:24;97805.84;;;6.49;69.87
43298;BME280;28892;55.640;37.532;2023-10-19T08:12:54;97806.84;;;6.48;70.34
43298;BME280;28892;55.640;37.532;2023-10-19T08:15:21;97811.38;;;6.54;70.41
43298;BME280;28892;55.640;37.532;2023-10-19T08:17:49;97796.72;;;6.74;70.12
43298;BME280;28892;55.640;37.532;2023-10-19T08:20:16;97802.28;;;6.85;69.51
43298;BME280;28892;55.640;37.532;2023-10-19T08:22:43;97798.13;;;6.69;69.13
43298;BME280;28892;55.640;37.532;2023-10-19T08:25:12;97807.72;;;6.84;68.74
43298;BME280;28892;55.640;37.532;2023-10-19T08:27:46;97816.00;;;7.09;69.05
43298;BME280;28892;55.640;37.532;2023-10-19T08:30:23;97803.00;;;7.08;68.57
43298;BME280;28892;55.640;37.532;2023-10-19T08:32:52;97809.28;;;7.07;68.79
43298;BME280;28892;55.640;37.532;2023-10-19T08:35:19;97808.44;;;6.71;68.75
43298;BME280;28892;55.640;37.532;2023-10-19T08:37:52;97813.91;;;6.98;68.63
43298;BME280;28892;55.640;37.532;2023-10-19T08:40:20;97812.34;;;7.10;68.14
43298;BME280;28892;55.640;37.532;2023-10-19T08:42:47;97812.81;;;6.85;67.79
43298;BME280;28892;55.640;37.532;2023-10-19T08:45:16;97806.97;;;6.90;68.17
43298;BME280;28892;55.640;37.532;2023-10-19T08:47:59;97820.50;;;7.16;67.95
43298;BME280;28892;55.640;37.532;2023-10-19T08:50:32;97798.00;;;7.20;67.65
43298;BME280;28892;55.640;37.532;2023-10-19T08:53:01;97807.38;;;7.29;68.21
43298;BME280;28892;55.640;37.532;2023-10-19T08:55:29;97807.03;;;7.04;68.36
43298;BME280;28892;55.640;37.532;2023-10-19T08:57:56;97812.97;;;7.12;68.61
43298;BME280;28892;55.640;37.532;2023-10-19T09:00:26;97826.97;;;7.13;67.17
43298;BME280;28892;55.640;37.532;2023-10-19T09:02:53;97819.13;;;6.91;67.07
43298;BME280;28892;55.640;37.532;2023-10-19T09:05:20;97819.63;;;7.02;68.33
43298;BME280;28892;55.640;37.532;2023-10-19T09:07:52;97826.13;;;7.06;67.94
43298;BME280;28892;55.640;37.532;2023-10-19T09:10:23;97823.50;;;7.12;67.75
43298;BME280;28892;55.640;37.532;2023-10-19T09:13:05;97819.47;;;7.52;68.44
43298;BME280;28892;55.640;37.532;2023-10-19T09:15:38;97829.34;;;8.05;68.24
43298;BME280;28892;55.640;37.532;2023-10-19T09:18:21;97828.13;;;7.94;65.88
43298;BME280;28892;55.640;37.532;2023-10-19T09:20:52;97820.75;;;7.69;65.86
43298;BME280;28892;55.640;37.532;2023-10-19T09:23:23;97829.44;;;7.57;66.31
43298;BME280;28892;55.640;37.532;2023-10-19T09:25:50;97829.16;;;7.45;66.21
43298;BME280;28892;55.640;37.532;2023-10-19T09:28:19;97825.28;;;7.40;67.17
43298;BME280;28892;55.640;37.532;2023-10-19T09:30:46;97834.00;;;7.41;67.67
43298;BME280;28892;55.640;37.532;2023-10-19T09:33:16;97835.69;;;7.49;67.83
43298;BME280;28892;55.640;37.532;2023-10-19T09:35:47;97840.28;;;7.40;68.15
43298;BME280;28892;55.640;37.532;2023-10-19T09:38:18;97833.78;;;7.36;68.89
43298;BME280;28892;55.640;37.532;2023-10-19T09:40:48;97836.59;;;7.69;68.43
43298;BME280;28892;55.640;37.532;2023-10-19T09:43:16;97832.59;;;7.38;68.29
43298;BME280;28892;55.640;37.532;2023-10-19T09:45:48;97823.31;;;7.56;68.24
43298;BME280;28892;55.640;37.532;2023-10-19T09:48:20;97835.59;;;7.77;67.37
43298;BME280;28892;55.640;37.532;2023-10-19T09:50:54;97836.47;;;7.98;67.06
43298;BME280;28892;55.640;37.532;2023-10-19T09:53:31;97833.00;;;7.97;67.25
43298;BME280;28892;55.640;37.532;2023-10-19T09:55:59;97830.53;;;7.89;67.69
43298;BME280;28892;55.640;37.532;2023-10-19T09:58:38;97820.22;;;8.01;67.77
43298;BME280;28892;55.640;37.532;2023-10-19T10:01:20;97821.06;;;8.08;67.43
43298;BME280;28892;55.640;37.532;2023-10-19T10:03:53;97818.19;;;8.17;67.14
43298;BME280;28892;55.640;37.532;2023-10-19T10:06:30;97832.84;;;8.26;66.57
43298;BME280;28892;55.640;37.532;2023-10-19T10:09:22;97834.03;;;8.10;66.07
43298;BME280;28892;55.640;37.532;2023-10-19T10:12:32;97829.97;;;8.01;67.51
43298;BME280;28892;55.640;37.532;2023-10-19T10:15:06;97839.91;;;7.99;67.54
43298;BME280;28892;55.640;37.532;2023-10-19T10:17:38;97833.00;;;7.97;67.00
43298;BME280;28892;55.640;37.532;2023-10-19T10:22:43;97830.91;;;7.73;66.58
43298;BME280;28892;55.640;37.532;2023-10-19T10:25:29;97827.72;;;7.97;66.71
43298;BME280;28892;55.640;37.532;2023-10-19T10:27:55;97825.03;;;7.77;65.59
43298;BME280;28892;55.640;37.532;2023-10-19T10:30:21;97834.81;;;7.90;66.30
43298;BME280;28892;55.640;37.532;2023-10-19T10:32:52;97841.97;;;8.17;66.14
43298;BME280;28892;55.640;37.532;2023-10-19T10:38:33;97832.25;;;8.17;66.80
43298;BME280;28892;55.640;37.532;2023-10-19T10:41:11;97825.69;;;8.00;66.55
43298;BME280;28892;55.640;37.532;2023-10-19T10:43:59;97825.94;;;7.49;64.76
43298;BME280;28892;55.640;37.532;2023-10-19T10:46:41;97818.03;;;7.56;64.84
43298;BME280;28892;55.640;37.532;2023-10-19T10:49:49;97834.69;;;7.50;65.52
43298;BME280;28892;55.640;37.532;2023-10-19T10:54:52;97843.25;;;7.65;66.79
43298;BME280;28892;55.640;37.532;2023-10-19T10:57:22;97835.13;;;7.60;65.86
43298;BME280;28892;55.640;37.532;2023-10-19T11:02:47;97839.44;;;7.75;66.18
43298;BME280;28892;55.640;37.532;2023-10-19T11:05:27;97841.34;;;7.46;66.62
43298;BME280;28892;55.640;37.532;2023-10-19T11:08:23;97832.00;;;7.43;66.64
43298;BME280;28892;55.640;37.532;2023-10-19T11:11:02;97846.44;;;7.47;65.49
43298;BME280;28892;55.640;37.532;2023-10-19T11:13:32;97842.47;;;7.30;65.86
43298;BME280;28892;55.640;37.532;2023-10-19T11:16:03;97844.53;;;7.34;66.66
43298;BME280;28892;55.640;37.532;2023-10-19T11:18:33;97848.41;;;7.32;66.62
43298;BME280;28892;55.640;37.532;2023-10-19T11:21:03;97842.88;;;7.26;66.81
43298;BME280;28892;55.640;37.532;2023-10-19T11:23:37;97850.59;;;7.28;67.72
43298;BME280;28892;55.640;37.532;2023-10-19T11:26:04;97856.13;;;7.05;67.93
43298;BME280;28892;55.640;37.532;2023-10-19T11:28:31;97844.09;;;6.95;68.33
43298;BME280;28892;55.640;37.532;2023-10-19T11:34:28;97843.22;;;7.17;68.57
43298;BME280;28892;55.640;37.532;2023-10-19T11:36:56;97848.91;;;7.20;68.36
43298;BME280;28892;55.640;37.532;2023-10-19T11:39:23;97842.25;;;7.24;68.23
43298;BME280;28892;55.640;37.532;2023-10-19T11:42:00;97842.94;;;7.40;67.96
43298;BME280;28892;55.640;37.532;2023-10-19T11:44:26;97844.00;;;7.52;68.09
43298;BME280;28892;55.640;37.532;2023-10-19T11:46:52;97842.66;;;7.63;67.45
43298;BME280;28892;55.640;37.532;2023-10-19T11:49:18;97845.03;;;7.58;66.89
43298;BME280;28892;55.640;37.532;2023-10-19T11:51:45;97845.09;;;7.65;67.23
43298;BME280;28892;55.640;37.532;2023-10-19T11:54:12;97839.59;;;7.60;67.91
43298;BME280;28892;55.640;37.532;2023-10-19T11:56:38;97838.56;;;7.61;67.60
43298;BME280;28892;55.640;37.532;2023-10-19T11:59:04;97840.00;;;7.63;66.94
43298;BME280;28892;55.640;37.532;2023-10-19T12:01:30;97840.63;;;7.65;67.16
43298;BME280;28892;55.640;37.532;2023-10-19T12:03:56;97844.97;;;7.87;66.82
43298;BME280;28892;55.640;37.532;2023-10-19T12:06:22;97843.75;;;7.89;66.43
43298;BME280;28892;55.640;37.532;2023-10-19T12:08:49;97843.97;;;7.94;66.05
43298;BME280;28892;55.640;37.532;2023-10-19T12:11:15;97844.19;;;8.00;66.03
43298;BME280;28892;55.640;37.532;2023-10-19T12:13:43;97844.38;;;7.91;66.16
43298;BME280;28892;55.640;37.532;2023-10-19T12:16:13;97845.38;;;7.90;66.60
43298;BME280;28892;55.640;37.532;2023-10-19T12:18:42;97838.00;;;7.72;67.25
43298;BME280;28892;55.640;37.532;2023-10-19T12:21:09;97850.78;;;7.68;66.71
43298;BME280;28892;55.640;37.532;2023-10-19T12:23:42;97858.53;;;7.83;66.59
43298;BME280;28892;55.640;37.532;2023-10-19T12:26:09;97857.13;;;7.81;65.85
43298;BME280;28892;55.640;37.532;2023-10-19T12:28:44;97850.19;;;7.80;65.51
43298;BME280;28892;55.640;37.532;2023-10-19T12:31:27;97854.09;;;7.91;65.25
43298;BME280;28892;55.640;37.532;2023-10-19T12:33:56;97856.97;;;7.96;65.33
43298;BME280;28892;55.640;37.532;2023-10-19T12:36:22;97856.56;;;7.92;65.28
43298;BME280;28892;55.640;37.532;2023-10-19T12:38:55;97853.50;;;7.89;65.62
43298;BME280;28892;55.640;37.532;2023-10-19T12:41:24;97850.63;;;7.83;65.27
43298;BME280;28892;55.640;37.532;2023-10-19T12:43:51;97844.75;;;7.81;65.45
43298;BME280;28892;55.640;37.532;2023-10-19T12:46:18;97847.16;;;7.69;65.04
43298;BME280;28892;55.640;37.532;2023-10-19T12:48:45;97849.97;;;7.68;65.31
43298;BME280;28892;55.640;37.532;2023-10-19T12:51:14;97858.75;;;7.82;65.40
43298;BME280;28892;55.640;37.532;2023-10-19T12:53:41;97857.75;;;7.90;64.94
43298;BME280;28892;55.640;37.532;2023-10-19T12:56:07;97855.13;;;7.90;64.84
43298;BME280;28892;55.640;37.532;2023-10-19T12:58:37;97855.31;;;7.88;65.45
43298;BME280;28892;55.640;37.532;2023-10-19T13:01:03;97853.66;;;7.74;65.84
43298;BME280;28892;55.640;37.532;2023-10-19T13:03:31;97851.16;;;7.59;66.29
43298;BME280;28892;55.640;37.532;2023-10-19T13:05:58;97858.47;;;7.63;66.76
43298;BME280;28892;55.640;37.532;2023-10-19T13:08:25;97859.50;;;7.69;66.89
43298;BME280;28892;55.640;37.532;2023-10-19T13:10:58;97854.66;;;7.73;67.12
43298;BME280;28892;55.640;37.532;2023-10-19T13:13:28;97859.34;;;7.77;66.65
43298;BME280;28892;55.640;37.532;2023-10-19T13:15:57;97855.31;;;7.39;67.55
43298;BME280;28892;55.640;37.532;2023-10-19T13:18:23;97849.78;;;7.27;68.33
43298;BME280;28892;55.640;37.532;2023-10-19T13:20:55;97858.53;;;7.35;68.68
43298;BME280;28892;55.640;37.532;2023-10-19T13:23:22;97857.53;;;7.36;68.05
43298;BME280;28892;55.640;37.532;2023-10-19T13:25:49;97863.69;;;7.15;68.14
43298;BME280;28892;55.640;37.532;2023-10-19T13:28:23;97860.13;;;7.29;68.48
43298;BME280;28892;55.640;37.532;2023-10-19T13:30:58;97865.06;;;7.39;68.30
43298;BME280;28892;55.640;37.532;2023-10-19T13:33:56;97850.41;;;7.36;67.30
43298;BME280;28892;55.640;37.532;2023-10-19T13:36:32;97866.91;;;7.45;66.19
43298;BME280;28892;55.640;37.532;2023-10-19T13:39:03;97871.41;;;7.51;66.58